createdAt,value
2022-10-19T00:00:40.482Z,98156.69
2022-10-19T00:02:43.054Z,98151.56
2022-10-19T00:04:45.727Z,98159.50
2022-10-19T00:06:48.350Z,98166.63
2022-10-19T00:08:50.944Z,98155.34
2022-10-19T00:10:53.519Z,98155.53
2022-10-19T00:12:56.239Z,98163.44
2022-10-19T00:14:59.042Z,98147.78
2022-10-19T00:17:03.024Z,98150.47
2022-10-19T00:19:09.036Z,98154.97
2022-10-19T00:21:13.248Z,98147.19
2022-10-19T00:23:16.177Z,98148.06
2022-10-19T00:25:18.984Z,98134.09
2022-10-19T00:27:21.570Z,98135.69
2022-10-19T00:29:24.146Z,98135.50
2022-10-19T00:31:27.685Z,98134.59
2022-10-19T00:33:31.666Z,98140.75
2022-10-19T00:35:34.248Z,98140.69
2022-10-19T00:37:36.859Z,98147.66
2022-10-19T00:39:39.524Z,98145.59
2022-10-19T00:41:43.463Z,98151.44
2022-10-19T00:43:55.189Z,98147.97
2022-10-19T00:45:57.791Z,98150.59
2022-10-19T00:48:00.413Z,98146.94
2022-10-19T00:50:04.912Z,98150.59
2022-10-19T00:52:10.535Z,98142.06
2022-10-19T00:54:13.654Z,98144.75
2022-10-19T00:56:17.890Z,98137.84
2022-10-19T00:58:21.590Z,98139.59
2022-10-19T01:00:24.209Z,98138.81
2022-10-19T01:02:26.999Z,98133.56
2022-10-19T01:04:31.648Z,98131.91
2022-10-19T01:06:36.915Z,98133.81
2022-10-19T01:08:39.552Z,98136.50
2022-10-19T01:10:51.831Z,98129.47
2022-10-19T01:13:06.133Z,98126.97
2022-10-19T01:15:21.434Z,98127.88
2022-10-19T01:17:32.312Z,98125.31
2022-10-19T01:20:08.809Z,98136.84
2022-10-19T01:22:26.632Z,98139.56
2022-10-19T01:25:07.151Z,98136.28
2022-10-19T01:27:36.340Z,98134.56
2022-10-19T01:29:57.373Z,98134.66
2022-10-19T01:32:06.906Z,98134.72
2022-10-19T01:34:17.671Z,98130.81
2022-10-19T01:36:26.509Z,98120.72
2022-10-19T01:38:35.186Z,98125.34
2022-10-19T01:40:43.720Z,98122.00
2022-10-19T01:42:52.657Z,98118.56
2022-10-19T01:45:02.948Z,98114.22
2022-10-19T01:47:08.064Z,98119.63
2022-10-19T01:49:17.140Z,98114.41
2022-10-19T01:51:24.151Z,98113.47
2022-10-19T01:53:29.454Z,98111.97
2022-10-19T01:55:33.267Z,98118.09
2022-10-19T01:57:40.935Z,98114.72
2022-10-19T01:59:45.016Z,98107.72
2022-10-19T02:01:52.307Z,98112.16
2022-10-19T02:03:55.859Z,98108.53
2022-10-19T02:05:59.465Z,98112.03
2022-10-19T02:08:05.501Z,98112.03
2022-10-19T02:10:09.054Z,98110.28
2022-10-19T02:12:13.180Z,98113.66
2022-10-19T02:14:19.357Z,98106.59
2022-10-19T02:16:27.091Z,98118.94
2022-10-19T02:18:35.287Z,98115.47
2022-10-19T02:20:38.417Z,98115.66
2022-10-19T02:22:41.379Z,98107.09
2022-10-19T02:24:43.947Z,98106.75
2022-10-19T02:26:47.134Z,98101.75
2022-10-19T02:28:50.457Z,98103.50
2022-10-19T02:30:53.151Z,98096.69
2022-10-19T02:32:55.910Z,98100.19
2022-10-19T02:34:59.826Z,98092.28
2022-10-19T02:37:02.570Z,98095.81
2022-10-19T02:39:05.712Z,98098.56
2022-10-19T02:41:12.973Z,98097.69
2022-10-19T02:43:19.262Z,98094.94
2022-10-19T02:45:26.832Z,98093.31
2022-10-19T02:47:35.676Z,98094.16
2022-10-19T02:49:39.715Z,98085.53
2022-10-19T02:52:00.795Z,98079.03
2022-10-19T02:54:05.407Z,98088.97
2022-10-19T02:56:10.042Z,98080.25
2022-10-19T02:58:12.682Z,98083.03
2022-10-19T03:00:15.420Z,98076.94
2022-10-19T03:02:19.397Z,98076.94
2022-10-19T03:04:21.996Z,98083.91
2022-10-19T03:06:24.575Z,98080.25
2022-10-19T03:08:28.551Z,98083.53
2022-10-19T03:10:31.162Z,98077.44
2022-10-19T03:12:33.747Z,98082.16
2022-10-19T03:14:36.337Z,98076.16
2022-10-19T03:16:38.984Z,98080.31
2022-10-19T03:18:41.901Z,98080.59
2022-10-19T03:20:44.489Z,98078.03
2022-10-19T03:22:47.109Z,98073.63
2022-10-19T03:24:51.099Z,98074.56
2022-10-19T03:26:53.644Z,98066.63
2022-10-19T03:28:56.297Z,98069.44
2022-10-19T03:30:59.060Z,98066.06
2022-10-19T03:33:01.604Z,98068.81
2022-10-19T03:35:04.392Z,98067.00
2022-10-19T03:37:08.646Z,98061.88
2022-10-19T03:39:13.982Z,98068.00
2022-10-19T03:41:17.945Z,98062.84
2022-10-19T03:43:20.520Z,98062.84
2022-10-19T03:45:23.129Z,98062.16
2022-10-19T03:47:25.792Z,98056.84
2022-10-19T03:49:28.428Z,98056.09
2022-10-19T03:51:32.958Z,98066.00
2022-10-19T03:53:35.914Z,98056.53
2022-10-19T03:55:38.498Z,98057.44
2022-10-19T03:57:42.605Z,98052.63
2022-10-19T03:59:45.203Z,98050.53
2022-10-19T04:01:47.752Z,98051.88
2022-10-19T04:03:54.416Z,98059.06
2022-10-19T04:06:03.617Z,98060.00
2022-10-19T04:08:06.870Z,98060.22
2022-10-19T04:10:09.858Z,98069.88
2022-10-19T04:12:12.419Z,98063.72
2022-10-19T04:14:27.036Z,98054.03
2022-10-19T04:16:35.648Z,98062.94
2022-10-19T04:18:38.248Z,98052.88
2022-10-19T04:20:42.750Z,98055.06
2022-10-19T04:22:45.348Z,98054.06
2022-10-19T04:24:47.912Z,98052.44
2022-10-19T04:26:52.988Z,98049.66
2022-10-19T04:28:57.506Z,98053.25
2022-10-19T04:31:05.043Z,98050.56
2022-10-19T04:33:07.618Z,98046.94
2022-10-19T04:35:10.536Z,98052.97
2022-10-19T04:37:13.118Z,98048.66
2022-10-19T04:39:15.707Z,98048.56
2022-10-19T04:41:20.002Z,98052.09
2022-10-19T04:43:22.734Z,98046.94
2022-10-19T04:45:25.386Z,98047.84
2022-10-19T04:47:29.848Z,98047.91
2022-10-19T04:49:32.432Z,98056.63
2022-10-19T04:51:35.942Z,98057.56
2022-10-19T04:53:40.772Z,98050.56
2022-10-19T04:55:43.534Z,98053.25
2022-10-19T04:57:46.187Z,98045.53
2022-10-19T04:59:48.809Z,98055.94
2022-10-19T05:01:51.403Z,98052.56
2022-10-19T05:06:05.328Z,98042.25
2022-10-19T05:08:08.253Z,98050.22
2022-10-19T05:10:12.043Z,98047.06
2022-10-19T05:12:14.732Z,98041.84
2022-10-19T05:14:17.441Z,98042.00
2022-10-19T05:16:22.677Z,98042.22
2022-10-19T05:18:25.356Z,98048.28
2022-10-19T05:20:29.357Z,98039.53
2022-10-19T05:22:31.988Z,98040.28
2022-10-19T05:24:34.613Z,98039.28
2022-10-19T05:26:37.169Z,98038.28
2022-10-19T05:28:39.894Z,98032.81
2022-10-19T05:30:46.652Z,98043.19
2022-10-19T05:32:51.551Z,98035.19
2022-10-19T05:34:54.326Z,98035.94
2022-10-19T05:36:58.250Z,98035.94
2022-10-19T05:39:04.554Z,98029.84
2022-10-19T05:41:07.776Z,98030.75
2022-10-19T05:43:10.455Z,98034.31
2022-10-19T05:45:13.070Z,98030.09
2022-10-19T05:47:15.786Z,98031.91
2022-10-19T05:49:20.340Z,98034.59
2022-10-19T05:51:24.140Z,98034.59
2022-10-19T05:53:28.734Z,98037.97
2022-10-19T05:55:35.878Z,98037.97
2022-10-19T05:57:38.438Z,98035.19
2022-10-19T05:59:41.059Z,98039.34
2022-10-19T06:01:43.703Z,98039.19
2022-10-19T06:03:46.694Z,98042.69
2022-10-19T06:05:49.866Z,98043.22
2022-10-19T06:07:52.434Z,98036.47
2022-10-19T06:09:56.311Z,98038.19
2022-10-19T06:11:58.897Z,98035.59
2022-10-19T06:14:02.857Z,98048.44
2022-10-19T06:16:06.674Z,98044.84
2022-10-19T06:18:10.584Z,98054.38
2022-10-19T06:20:13.328Z,98050.13
2022-10-19T06:22:15.971Z,98050.97
2022-10-19T06:24:18.541Z,98055.06
2022-10-19T06:26:22.899Z,98062.84
2022-10-19T06:28:25.517Z,98060.22
2022-10-19T06:30:28.573Z,98062.09
2022-10-19T06:32:32.325Z,98062.03
2022-10-19T06:34:34.938Z,98067.03
2022-10-19T06:36:37.533Z,98070.34
2022-10-19T06:38:40.701Z,98071.16
2022-10-19T06:40:43.352Z,98068.44
2022-10-19T06:42:47.338Z,98068.28
2022-10-19T06:44:49.914Z,98072.63
2022-10-19T06:46:52.511Z,98070.84
2022-10-19T06:48:57.036Z,98073.31
2022-10-19T06:51:00.705Z,98076.72
2022-10-19T06:53:03.331Z,98075.72
2022-10-19T06:55:06.926Z,98074.72
2022-10-19T06:57:09.460Z,98076.25
2022-10-19T06:59:14.828Z,98076.03
2022-10-19T07:01:17.667Z,98078.72
2022-10-19T07:03:20.308Z,98075.25
2022-10-19T07:05:23.301Z,98081.28
2022-10-19T07:07:25.896Z,98076.78
2022-10-19T07:09:28.646Z,98082.88
2022-10-19T07:11:31.327Z,98077.44
2022-10-19T07:13:34.447Z,98078.09
2022-10-19T07:15:38.423Z,98076.28
2022-10-19T07:17:41.037Z,98079.47
2022-10-19T07:19:43.665Z,98073.34
2022-10-19T07:21:46.342Z,98075.66
2022-10-19T07:23:49.556Z,98071.28
2022-10-19T07:25:53.253Z,98067.78
2022-10-19T07:27:55.836Z,98065.16
2022-10-19T07:29:58.433Z,98071.13
2022-10-19T07:32:02.359Z,98070.06
2022-10-19T07:34:06.306Z,98059.47
2022-10-19T07:36:10.783Z,98059.38
2022-10-19T07:38:13.429Z,98062.81
2022-10-19T07:40:16.200Z,98073.25
2022-10-19T07:42:18.810Z,98066.25
2022-10-19T07:44:21.466Z,98071.38
2022-10-19T07:46:26.349Z,98072.09
2022-10-19T07:48:30.446Z,98067.66
2022-10-19T07:50:33.017Z,98066.69
2022-10-19T07:52:36.986Z,98073.69
2022-10-19T07:54:39.874Z,98069.41
2022-10-19T07:56:42.464Z,98065.97
2022-10-19T07:58:45.650Z,98068.59
2022-10-19T08:00:48.395Z,98069.31
2022-10-19T08:03:05.074Z,98071.94
2022-10-19T08:05:15.414Z,98073.47
2022-10-19T08:07:18.489Z,98074.25
2022-10-19T08:09:50.891Z,98076.03
2022-10-19T08:11:43.643Z,98072.28
2022-10-19T08:13:46.500Z,98063.47
2022-10-19T08:15:49.116Z,98069.41
2022-10-19T08:17:51.662Z,98063.13
2022-10-19T08:19:54.323Z,98069.03
2022-10-19T08:21:58.443Z,98072.41
2022-10-19T08:24:03.760Z,98077.50
2022-10-19T08:26:06.782Z,98072.13
2022-10-19T08:28:11.967Z,98062.38
2022-10-19T08:30:14.665Z,98057.94
2022-10-19T08:32:17.253Z,98056.97
2022-10-19T08:34:19.914Z,98065.59
2022-10-19T08:36:22.537Z,98059.47
2022-10-19T08:38:26.509Z,98062.09
2022-10-19T08:40:31.102Z,98060.44
2022-10-19T08:42:51.494Z,98061.28
2022-10-19T08:45:04.136Z,98065.50
2022-10-19T08:47:17.541Z,98068.84
2022-10-19T08:49:24.595Z,98060.00
2022-10-19T08:51:28.336Z,98060.84
2022-10-19T08:53:41.309Z,98057.97
2022-10-19T08:55:58.640Z,98058.69
2022-10-19T08:58:17.330Z,98060.28
2022-10-19T09:00:29.510Z,98055.81
2022-10-19T09:02:44.850Z,98046.22
2022-10-19T09:04:51.387Z,98058.38
2022-10-19T09:07:18.082Z,98047.69
2022-10-19T09:09:22.280Z,98048.34
2022-10-19T09:11:29.209Z,98043.72
2022-10-19T09:13:41.628Z,98047.03
2022-10-19T09:15:56.121Z,98038.00
2022-10-19T09:17:58.853Z,98042.28
2022-10-19T09:20:14.601Z,98037.91
2022-10-19T09:22:21.388Z,98033.38
2022-10-19T09:24:44.105Z,98030.53
2022-10-19T09:26:53.568Z,98029.47
2022-10-19T09:28:59.798Z,98034.53
2022-10-19T09:31:03.317Z,98024.72
2022-10-19T09:33:15.408Z,98025.53
2022-10-19T09:35:27.778Z,98028.88
2022-10-19T09:37:32.166Z,98029.59
2022-10-19T09:39:36.336Z,98031.28
2022-10-19T09:41:46.965Z,98026.81
2022-10-19T09:43:54.075Z,98024.03
2022-10-19T09:46:09.654Z,98024.75
2022-10-19T09:48:27.314Z,98016.72
2022-10-19T09:50:31.766Z,98027.91
2022-10-19T09:52:38.085Z,98013.75
2022-10-19T09:54:42.156Z,98014.56
2022-10-19T09:56:54.563Z,98018.88
2022-10-19T09:58:59.055Z,98016.97
2022-10-19T10:01:03.778Z,98017.66
2022-10-19T10:03:07.570Z,98014.84
2022-10-19T10:05:15.976Z,98018.94
2022-10-19T10:07:19.671Z,98024.72
2022-10-19T10:09:27.196Z,98020.16
2022-10-19T10:11:33.945Z,98013.81
2022-10-19T10:13:39.319Z,98019.78
2022-10-19T10:15:45.349Z,98009.97
2022-10-19T10:17:49.591Z,98009.00
2022-10-19T10:20:03.915Z,98011.22
2022-10-19T10:22:06.532Z,98016.44
2022-10-19T10:24:20.959Z,98008.44
2022-10-19T10:26:26.881Z,98011.84
2022-10-19T10:28:31.870Z,98008.28
2022-10-19T10:30:37.770Z,98003.00
2022-10-19T10:32:48.032Z,98004.66
2022-10-19T10:35:01.671Z,98009.91
2022-10-19T10:37:06.843Z,98003.66
2022-10-19T10:39:16.917Z,97995.66
2022-10-19T10:41:23.936Z,97993.91
2022-10-19T10:43:32.800Z,97997.41
2022-10-19T10:45:39.885Z,97989.50
2022-10-19T10:47:48.118Z,97992.22
2022-10-19T10:49:57.679Z,97993.03
2022-10-19T10:52:05.455Z,97993.91
2022-10-19T10:54:16.836Z,97991.19
2022-10-19T10:56:25.643Z,97989.41
2022-10-19T10:58:43.272Z,97985.66
2022-10-19T11:00:46.706Z,97976.81
2022-10-19T11:02:55.322Z,97978.44
2022-10-19T11:05:02.769Z,97973.03
2022-10-19T11:07:16.771Z,97979.78
2022-10-19T11:09:27.045Z,97970.78
2022-10-19T11:11:36.217Z,97971.38
2022-10-19T11:13:46.028Z,97972.09
2022-10-19T11:15:54.837Z,97968.84
2022-10-19T11:18:07.258Z,97968.75
2022-10-19T11:20:15.797Z,97958.16
2022-10-19T11:22:26.387Z,97963.97
2022-10-19T11:24:41.897Z,97953.81
2022-10-19T11:27:00.535Z,97949.22
2022-10-19T11:29:17.211Z,97947.53
2022-10-19T11:31:23.366Z,97940.53
2022-10-19T11:35:53.035Z,97935.25
2022-10-19T11:38:19.542Z,97933.56
2022-10-19T11:40:28.862Z,97924.81
2022-10-19T11:45:07.101Z,97927.63
2022-10-19T11:47:29.189Z,97924.91
2022-10-19T11:49:43.439Z,97919.25
2022-10-19T11:51:53.430Z,97912.34
2022-10-19T11:54:12.363Z,97905.03
2022-10-19T11:56:39.261Z,97901.50
2022-10-19T11:59:03.902Z,97895.38
2022-10-19T12:01:17.130Z,97897.91
2022-10-19T12:03:37.207Z,97902.19
2022-10-19T12:05:54.781Z,97898.44
2022-10-19T12:08:15.264Z,97890.13
2022-10-19T12:10:25.837Z,97893.63
2022-10-19T12:12:33.514Z,97882.50
2022-10-19T12:14:40.103Z,97888.09
2022-10-19T12:16:46.849Z,97885.63
2022-10-19T12:18:52.633Z,97886.53
2022-10-19T12:20:59.656Z,97881.19
2022-10-19T12:23:05.941Z,97877.53
2022-10-19T12:25:13.590Z,97881.81
2022-10-19T12:27:18.393Z,97884.31
2022-10-19T12:29:24.556Z,97884.38
2022-10-19T12:31:29.356Z,97881.75
2022-10-19T12:33:45.475Z,97869.25
2022-10-19T12:36:13.782Z,97870.34
2022-10-19T12:38:27.231Z,97872.03
2022-10-19T12:40:38.628Z,97865.06
2022-10-19T12:42:51.840Z,97867.50
2022-10-19T12:45:16.873Z,97868.19
2022-10-19T12:47:21.625Z,97862.22
2022-10-19T12:49:45.145Z,97864.44
2022-10-19T12:51:50.366Z,97860.72
2022-10-19T12:54:07.854Z,97864.66
2022-10-19T12:56:16.355Z,97862.88
2022-10-19T12:58:22.636Z,97861.88
2022-10-19T13:00:27.773Z,97858.56
2022-10-19T13:04:54.022Z,97852.47
2022-10-19T13:07:03.546Z,97850.28
2022-10-19T13:09:08.878Z,97843.63
2022-10-19T13:11:15.105Z,97845.38
2022-10-19T13:13:54.319Z,97848.50
2022-10-19T13:15:57.463Z,97840.75
2022-10-19T13:18:00.161Z,97843.78
2022-10-19T13:22:51.502Z,97834.06
2022-10-19T13:25:32.613Z,97832.81
2022-10-19T13:27:39.681Z,97831.59
2022-10-19T13:29:44.791Z,97820.03
2022-10-19T13:31:47.425Z,97817.59
2022-10-19T13:33:51.769Z,97816.72
2022-10-19T13:36:07.906Z,97818.91
2022-10-19T13:38:27.412Z,97816.91
2022-10-19T13:40:31.322Z,97811.72
2022-10-19T13:42:34.344Z,97812.66
2022-10-19T13:44:39.454Z,97810.97
2022-10-19T13:46:54.167Z,97806.06
2022-10-19T13:49:32.493Z,97808.16
2022-10-19T13:51:49.714Z,97806.06
2022-10-19T13:54:02.255Z,97800.88
2022-10-19T13:56:25.303Z,97797.78
2022-10-19T13:59:07.497Z,97791.44
2022-10-19T14:01:24.900Z,97788.88
2022-10-19T14:03:43.559Z,97791.63
2022-10-19T14:05:58.957Z,97798.94
2022-10-19T14:08:17.463Z,97790.38
2022-10-19T14:10:28.273Z,97784.81
2022-10-19T14:12:40.542Z,97784.59
2022-10-19T14:14:45.383Z,97779.91
2022-10-19T14:16:50.842Z,97786.72
2022-10-19T14:18:55.743Z,97785.94
2022-10-19T14:20:59.457Z,97774.31
2022-10-19T14:23:19.037Z,97774.31
2022-10-19T14:25:26.881Z,97765.66
2022-10-19T14:27:31.425Z,97769.22
2022-10-19T14:29:43.979Z,97768.31
2022-10-19T14:31:46.893Z,97770.88
2022-10-19T14:33:53.609Z,97764.28
2022-10-19T14:35:56.798Z,97760.97
2022-10-19T14:38:00.143Z,97750.22
2022-10-19T14:40:07.089Z,97752.44
2022-10-19T14:42:11.852Z,97745.53
2022-10-19T14:44:33.772Z,97746.00
2022-10-19T14:46:37.044Z,97751.53
2022-10-19T14:48:41.727Z,97753.25
2022-10-19T14:50:49.098Z,97756.22
2022-10-19T14:52:59.428Z,97761.91
2022-10-19T14:55:07.585Z,97760.88
2022-10-19T14:57:15.673Z,97756.13
2022-10-19T14:59:25.736Z,97750.94
2022-10-19T15:01:28.369Z,97750.69
2022-10-19T15:03:32.167Z,97753.47
2022-10-19T15:05:40.592Z,97751.78
2022-10-19T15:07:44.566Z,97759.84
2022-10-19T15:09:55.353Z,97746.53
2022-10-19T15:12:06.041Z,97749.84
2022-10-19T15:14:15.127Z,97749.31
2022-10-19T15:16:45.654Z,97751.94
2022-10-19T15:18:50.054Z,97747.78
2022-10-19T15:21:12.600Z,97756.00
2022-10-19T15:23:36.060Z,97749.31
2022-10-19T15:25:38.714Z,97755.28
2022-10-19T15:27:45.462Z,97750.25
2022-10-19T15:29:57.881Z,97742.63
2022-10-19T15:32:15.283Z,97746.16
2022-10-19T15:34:25.243Z,97742.34
2022-10-19T15:36:29.905Z,97743.72
2022-10-19T15:38:34.652Z,97728.19
2022-10-19T15:40:39.241Z,97731.13
2022-10-19T15:42:44.468Z,97720.69
2022-10-19T15:44:47.164Z,97725.03
2022-10-19T15:47:19.381Z,97727.16
2022-10-19T15:49:53.859Z,97727.22
2022-10-19T15:51:56.497Z,97719.69
2022-10-19T15:54:01.135Z,97717.47
2022-10-19T15:56:06.924Z,97716.19
2022-10-19T15:58:11.533Z,97720.19
2022-10-19T16:00:17.019Z,97719.78
2022-10-19T16:02:20.957Z,97710.69
2022-10-19T16:04:23.530Z,97712.88
2022-10-19T16:06:29.029Z,97703.91
2022-10-19T16:08:31.648Z,97702.88
2022-10-19T16:10:34.289Z,97705.44
2022-10-19T16:12:36.904Z,97699.63
2022-10-19T16:14:39.444Z,97702.69
2022-10-19T16:16:42.940Z,97708.19
2022-10-19T16:18:47.507Z,97720.66
2022-10-19T16:20:50.081Z,97703.44
2022-10-19T16:22:52.756Z,97699.19
2022-10-19T16:24:55.396Z,97697.59
2022-10-19T16:26:58.060Z,97704.72
2022-10-19T16:29:01.619Z,97709.28
2022-10-19T16:31:04.215Z,97708.59
2022-10-19T16:33:06.912Z,97710.44
2022-10-19T16:35:11.625Z,97705.34
2022-10-19T16:37:14.222Z,97701.16
2022-10-19T16:39:16.819Z,97696.84
2022-10-19T16:41:19.357Z,97698.69
2022-10-19T16:43:21.958Z,97704.88
2022-10-19T16:45:24.661Z,97704.13
2022-10-19T16:47:27.369Z,97707.66
2022-10-19T16:49:30.233Z,97713.88
2022-10-19T16:51:37.025Z,97708.69
2022-10-19T16:53:39.714Z,97711.25
2022-10-19T16:55:42.363Z,97706.81
2022-10-19T16:57:44.981Z,97712.06
2022-10-19T16:59:51.048Z,97710.38
2022-10-19T17:01:53.786Z,97712.06
2022-10-19T17:03:56.792Z,97712.16
2022-10-19T17:05:59.508Z,97710.47
2022-10-19T17:08:05.163Z,97711.47
2022-10-19T17:10:08.155Z,97708.91
2022-10-19T17:12:11.504Z,97703.66
2022-10-19T17:14:14.252Z,97707.22
2022-10-19T17:16:18.437Z,97708.13
2022-10-19T17:18:21.028Z,97706.53
2022-10-19T17:20:23.771Z,97712.78
2022-10-19T17:22:26.890Z,97706.75
2022-10-19T17:24:31.080Z,97707.63
2022-10-19T17:26:35.976Z,97704.06
2022-10-19T17:28:39.831Z,97702.34
2022-10-19T17:30:42.489Z,97704.97
2022-10-19T17:32:45.143Z,97697.97
2022-10-19T17:34:47.755Z,97698.72
2022-10-19T17:36:50.396Z,97707.53
2022-10-19T17:38:53.951Z,97703.38
2022-10-19T17:41:01.826Z,97706.91
2022-10-19T17:43:04.446Z,97706.84
2022-10-19T17:45:08.001Z,97710.50
2022-10-19T17:47:10.742Z,97709.53
2022-10-19T17:49:16.409Z,97702.53
2022-10-19T17:51:20.853Z,97705.16
2022-10-19T17:53:26.656Z,97712.94
2022-10-19T17:55:29.352Z,97713.13
2022-10-19T17:57:35.822Z,97719.28
2022-10-19T17:59:52.019Z,97721.91
2022-10-19T18:01:55.834Z,97727.03
2022-10-19T18:03:58.663Z,97722.69
2022-10-19T18:06:09.624Z,97723.72
2022-10-19T18:08:13.503Z,97717.75
2022-10-19T18:10:16.164Z,97719.44
2022-10-19T18:12:18.805Z,97724.00
2022-10-19T18:14:22.726Z,97716.13
2022-10-19T18:16:27.429Z,97717.91
2022-10-19T18:18:31.461Z,97724.09
2022-10-19T18:20:34.014Z,97710.94
2022-10-19T18:22:36.629Z,97720.59
2022-10-19T18:24:39.419Z,97725.03
2022-10-19T18:26:42.062Z,97719.78
2022-10-19T18:28:44.627Z,97714.34
2022-10-19T18:30:48.718Z,97711.81
2022-10-19T18:32:51.570Z,97710.94
2022-10-19T18:34:55.981Z,97711.81
2022-10-19T18:36:58.579Z,97698.66
2022-10-19T18:39:03.200Z,97702.91
2022-10-19T18:41:07.276Z,97697.66
2022-10-19T18:43:09.873Z,97694.09
2022-10-19T18:45:12.488Z,97694.09
2022-10-19T18:47:16.495Z,97695.78
2022-10-19T18:49:19.090Z,97692.31
2022-10-19T18:51:23.292Z,97690.31
2022-10-19T18:53:25.888Z,97691.31
2022-10-19T18:55:28.858Z,97680.97
2022-10-19T18:57:31.992Z,97684.38
2022-10-19T18:59:34.745Z,97674.00
2022-10-19T19:01:37.386Z,97674.94
2022-10-19T19:03:43.515Z,97665.34
2022-10-19T19:05:46.100Z,97670.66
2022-10-19T19:07:48.740Z,97671.63
2022-10-19T19:09:51.413Z,97671.63
2022-10-19T19:11:57.738Z,97668.13
2022-10-19T19:14:01.889Z,97661.28
2022-10-19T19:16:04.488Z,97654.22
2022-10-19T19:18:07.298Z,97661.34
2022-10-19T19:20:11.709Z,97659.63
2022-10-19T19:22:14.335Z,97658.84
2022-10-19T19:24:20.010Z,97658.09
2022-10-19T19:26:26.369Z,97653.84
2022-10-19T19:28:28.984Z,97649.53
2022-10-19T19:30:31.546Z,97653.06
2022-10-19T19:32:35.825Z,97653.25
2022-10-19T19:34:38.611Z,97644.75
2022-10-19T19:36:47.303Z,97648.44
2022-10-19T19:38:51.055Z,97653.88
2022-10-19T19:40:53.634Z,97662.00
2022-10-19T19:42:56.266Z,97660.50
2022-10-19T19:44:58.834Z,97663.34
2022-10-19T19:47:02.261Z,97655.72
2022-10-19T19:49:05.992Z,97660.28
2022-10-19T19:51:09.185Z,97647.47
2022-10-19T19:53:13.226Z,97638.94
2022-10-19T19:55:16.051Z,97635.59
2022-10-19T19:57:18.641Z,97637.59
2022-10-19T19:59:21.432Z,97636.84
2022-10-19T20:01:24.675Z,97630.88
2022-10-19T20:03:27.376Z,97623.22
2022-10-19T20:05:29.933Z,97626.94
2022-10-19T20:07:32.681Z,97622.75
2022-10-19T20:09:36.853Z,97615.56
2022-10-19T20:11:42.784Z,97622.97
2022-10-19T20:13:46.182Z,97618.09
2022-10-19T20:15:48.813Z,97614.78
2022-10-19T20:17:51.379Z,97617.75
2022-10-19T20:19:54.077Z,97603.88
2022-10-19T20:21:58.239Z,97607.34
2022-10-19T20:24:01.489Z,97607.41
2022-10-19T20:26:05.907Z,97604.09
2022-10-19T20:28:08.549Z,97600.56
2022-10-19T20:30:12.274Z,97605.13
2022-10-19T20:32:14.866Z,97603.59
2022-10-19T20:34:21.731Z,97595.94
2022-10-19T20:36:27.308Z,97598.72
2022-10-19T20:38:29.889Z,97606.50
2022-10-19T20:40:32.490Z,97606.38
2022-10-19T20:42:36.836Z,97609.03
2022-10-19T20:44:39.547Z,97605.78
2022-10-19T20:46:42.139Z,97601.41
2022-10-19T20:48:44.962Z,97610.91
2022-10-19T20:50:47.587Z,97607.84
2022-10-19T20:52:50.132Z,97614.81
2022-10-19T20:54:52.692Z,97616.75
2022-10-19T20:56:55.343Z,97619.44
2022-10-19T20:59:01.062Z,97622.97
2022-10-19T21:01:08.991Z,97616.09
2022-10-19T21:03:11.556Z,97615.94
2022-10-19T21:05:14.945Z,97621.47
2022-10-19T21:07:17.578Z,97623.88
2022-10-19T21:09:22.456Z,97620.56
2022-10-19T21:11:27.080Z,97622.88
2022-10-19T21:13:29.677Z,97614.22
2022-10-19T21:15:33.591Z,97613.25
2022-10-19T21:17:36.184Z,97614.81
2022-10-19T21:19:38.824Z,97610.78
2022-10-19T21:21:43.745Z,97612.69
2022-10-19T21:23:48.093Z,97616.09
2022-10-19T21:25:54.678Z,97609.38
2022-10-19T21:27:57.834Z,97611.28
2022-10-19T21:30:00.518Z,97603.19
2022-10-19T21:32:04.876Z,97599.84
2022-10-19T21:34:09.461Z,97603.47
2022-10-19T21:36:14.118Z,97600.94
2022-10-19T21:38:16.702Z,97596.59
2022-10-19T21:40:19.287Z,97599.13
2022-10-19T21:42:21.831Z,97594.84
2022-10-19T21:44:24.476Z,97599.28
2022-10-19T21:46:27.637Z,97594.84
2022-10-19T21:48:33.760Z,97591.44
2022-10-19T21:50:36.779Z,97595.03
2022-10-19T21:52:39.820Z,97591.66
2022-10-19T21:54:42.364Z,97594.28
2022-10-19T21:56:45.305Z,97594.38
2022-10-19T21:58:48.884Z,97590.41
2022-10-19T22:00:51.443Z,97589.69
2022-10-19T22:02:54.075Z,97595.22
2022-10-19T22:04:58.013Z,97590.13
2022-10-19T22:07:01.330Z,97587.53
2022-10-19T22:09:05.595Z,97585.84
2022-10-19T22:11:10.446Z,97582.44
2022-10-19T22:13:13.030Z,97585.13
2022-10-19T22:15:15.761Z,97580.94
2022-10-19T22:17:18.356Z,97580.94
2022-10-19T22:19:20.945Z,97582.06
2022-10-19T22:21:27.248Z,97585.53
2022-10-19T22:23:29.882Z,97581.16
2022-10-19T22:25:32.735Z,97576.28
2022-10-19T22:27:35.304Z,97581.06
2022-10-19T22:29:37.955Z,97578.66
2022-10-19T22:31:40.842Z,97587.44
2022-10-19T22:33:43.410Z,97585.75
2022-10-19T22:35:54.114Z,97580.50
2022-10-19T22:37:58.086Z,97578.75
2022-10-19T22:40:00.678Z,97570.03
2022-10-19T22:42:03.245Z,97574.34
2022-10-19T22:44:06.311Z,97561.13
2022-10-19T22:46:09.251Z,97566.44
2022-10-19T22:48:11.788Z,97557.94
2022-10-19T22:50:14.373Z,97565.00
2022-10-19T22:52:17.198Z,97555.50
2022-10-19T22:54:21.093Z,97557.94
2022-10-19T22:56:23.669Z,97546.84
2022-10-19T22:58:26.305Z,97539.94
2022-10-19T23:00:28.857Z,97548.75
2022-10-19T23:02:31.441Z,97547.00
2022-10-19T23:04:34.053Z,97537.63
2022-10-19T23:06:36.623Z,97525.63
2022-10-19T23:08:39.654Z,97520.56
2022-10-19T23:10:43.600Z,97523.19
2022-10-19T23:12:49.953Z,97526.72
2022-10-19T23:14:52.528Z,97510.88
2022-10-19T23:16:55.076Z,97519.53
2022-10-19T23:18:57.713Z,97508.78
2022-10-19T23:21:01.969Z,97508.72
2022-10-19T23:23:04.760Z,97506.13
2022-10-19T23:25:08.375Z,97504.19
2022-10-19T23:27:13.750Z,97512.38
2022-10-19T23:29:16.312Z,97508.06
2022-10-19T23:31:21.065Z,97506.50
2022-10-19T23:33:23.621Z,97505.59
2022-10-19T23:35:26.142Z,97504.72
2022-10-19T23:37:28.697Z,97501.47
2022-10-19T23:39:31.207Z,97498.97
2022-10-19T23:41:33.869Z,97499.38
2022-10-19T23:43:37.931Z,97499.38
2022-10-19T23:45:40.701Z,97501.25
2022-10-19T23:47:43.309Z,97503.78
2022-10-19T23:49:45.929Z,97496.75
2022-10-19T23:51:48.540Z,97501.25
2022-10-19T23:53:52.873Z,97497.75
2022-10-19T23:55:59.939Z,97494.94
2022-10-19T23:58:02.477Z,97494.78
